Ana Sayfa
METAR-TAF:

METAR-TAF

Havaalanları :

Bingöl Havalimanı

Bingöl, Türkiye

Enlem: 38-51-40N, Boylam: 40-35-33E, yükseklik: 1063 m

Güncel hava durumu gözlemi

Rapor saat 11:50 UTC de 5 saat ve 48 dakika önce yapıldı.
Rüzgar değişken yönden 4 kt
Sıcaklık 16°C
Nem 42%
Basınç 1022 hPa
Görüş mesafesi 10 km veya daha fazla
3500 ft yükseklikte parçalı bulutlu
10000 ft yükseklikte parçalı çok bulutlu

METAR: LTCU 051150Z VRB04KT 9999 SCT035 BKN100 16/03 Q1022

Saat: 20:38 (17:38 UTC)

Tahmin

Rapor saat 13:40 UTC de 3 saat ve 58 dakika önce yapıldı.
Ayın 05'si saat 15 UTC'den ayın 05'si saat 24 UTC'ye kadar geçerli Tahmin
Rüzgar değişken yönden 2 kt
Görüş mesafesi 10 km veya daha fazla
3500 ft yükseklikte az bulutlu
10000 ft yükseklikte parçalı çok bulutlu
20000 ft yükseklikte parçalı çok bulutlu

TAF: LTCU 051340Z 0515/0524 VRB02KT 9999 FEW035 BKN100 BKN200

4.000'den fazla havaalanı için hava durumu gözlemleri ve tahminleri (METAR ve TAF raporları).

Kullanılabilir istasyonlar harita üzerinde sarı ve kırmızı noktalarla gösterilir.

İstasyonun adını görmek için fareyi noktanın üzerinde gezdirin.

Sonrasında hava gözlem ve tahminlerini görmek için tıklayın.

Haritayı değiştirmek için: yaklaştırmak için siyah artı işaretli yeşil düğmeye ve uzaklaştırmak için de eksi işaretli düğmeye hızla tıklayın; bitişik haritalar için yeşil okları kullanın.


METAR-TAF: